Franklin Lakes, NJ

1:52 PM EDT on October 25, 2014 (GMT -0400)
Dogwood | Change Station
CLOSE
Current Station
Personal Weather Station
Location: Oakland, NJ
Elevation: 490 ft
Nearby Weather Stations

Elev 490 ft 41.02 °N, 74.23 °W | Updated 11 seconds ago

Clear
Clear
63.5 °F
Feels Like 63.5 °F
N
1.0
Wind Variable Wind from ENE
Gusts 2.0 mph

Today
High -- | Low -- °F
--% Chance of Precip.
Yesterday
High -- | Low -- °F
Precip. -- in
7:19 AM 6:01 PM
Waxing Crescent, 4% visible
Pressure 29.79 in
Visibility 10.0 miles
Clouds Clear
Dew Point 46 °F
Humidity 52%
Rainfall 0.00 in
Snow Depth Not available.
UV 1.4 out of 12
Pollen 1.40 out of 12
Air Quality Not available.
Flu Activity Sporadic
METAR KCDW 251653Z VRB05G14KT 10SM CLR 18/04 A2978 RMK AO2 SLP088 T01780039

More Conditions Fewer Conditions

Pressure 29.79 in
Visibility 10.0 miles
Clouds Clear
Dew Point 46 °F
Humidity 52%
Rainfall 0.00 in
Snow Depth Not available.
UV 1.4 out of 12
Pollen 1.40 out of 12
Air Quality Not available.
Flu Activity Sporadic
METAR KCDW 251653Z VRB05G14KT 10SM CLR 18/04 A2978 RMK AO2 SLP088 T01780039

More Conditions Fewer Conditions

10-Day Weather Forecast

Almanac

Astronomy

Oct. 25, 2014 Rise Set
Actual Time 7:19 AM EDT 6:01 PM EDT
Civil Twilight 6:51 AM EDT 6:29 PM EDT
Nautical Twilight 6:19 AM EDT 7:01 PM EDT
Astronomical Twilight 5:47 AM EDT 7:33 PM EDT
Moon 8:56 AM EDT 7:22 PM EDT
Length of Visible Light 11h 38m
Length of Day
10h 42m
Tomorrow will be 2m 31s shorter.
Waxing Crescent, 4% of the Moon is Illuminated
Today
Waxing Crescent
Oct 30
First Quarter
Nov 6
Full
Nov 14
Last Quarter
Nov 22
New

Today's Extremes

State Highs State Lows

Community

WunderPhotos

Upload Photos

1,764,919 photos uploaded!

Nearby

Snow Depth

Station Depth Elevation
No new snow has been reported.

Earthquake Activity

City Distance Mag. Time & Date
No recent earthquake activity has been reported nearby.
Minimum magnitude displayed is 2.5.

Coastal Water Temperatures

Place Temperature
Bridgeport, CT 59.0 °F

Nearby Weather Stations